Terminal Aerodrome Forecast
Issued by NWS Sterling, VA

Home | Current Version | Previous Version | Text Only | Print | Product List | Glossary On
Versions: 1 2 3 4 5 6 7 8 9 10 11 12 13 14 15 16 17 18 19 20 21 22 23
966
FTUS41 KLWX 230925 AAA
TAFIAD
TAF AMD
KIAD 230925Z 2309/2412 18005KT P6SM SCT070 OVC080
     FM231200 VRB03KT 4SM BR OVC060
     FM231300 20004KT 5SM BR BKN050
     FM231500 20005KT P6SM SCT250
     FM240000 19006KT P6SM BKN080
     FM240500 19005KT P6SM SCT060
     FM240600 19005KT 3SM BR SCT080
     FM240900 18005KT P6SM SCT200=

USA.gov is the U.S. government's official web portal to all federal, state and local government web resources and services.